»·PEaware :: N258GT KMER-KBFL

N258GT :: KMER-KBFL

FLIGHT INFORMATION

Flight Status: Arrived
Operator: Privately registered:
United States
More flights under this callsign
Pilot: Jamie L. (18851)
Aircraft: BEECH AIRCRAFT A90-E90 KING AIR
(BE9L)
More flights by this aircraft type
Origin: KMER Castle
United States
Destination: KBFL Meadows
United States
More flights between these airports :: More routes between these airports
Route: +CZQ V23 EHF
File this flight plan on PilotEdge
Remarks:
Altitude:
(Current/Filed)
11,000ft
Speed:
(Current/Filed)
220kts
Departed: 01-May-18 03:05 PM
Arrived: 01-May-18 03:54 PM
Distance/Time
Traveled:
138nm/0:49
Distance/Time
To Go:
Arrived

Flight Plot

Page will automatically refresh every two minutes.


Map Options




Map Legend


Flown Route
Filed Route
Departure Airport
Arrival Airport
Navaid (VOR, NDB)
Fix

Horizontal Profiles

Position Reports

Time Latitude Longitude Heading Altitude Ground
Speed
01-May-18 14:38 37.370473 -120.567503 54 194ft 0kts
01-May-18 14:39 37.370473 -120.567503 54 194ft 0kts
01-May-18 14:40 37.370473 -120.567503 54 194ft 0kts
01-May-18 14:41 37.370473 -120.567503 54 194ft 0kts
01-May-18 14:42 37.370473 -120.567503 54 194ft 0kts
01-May-18 14:43 37.370473 -120.567503 54 194ft 0kts
01-May-18 14:44 37.370473 -120.567503 54 194ft 0kts
01-May-18 14:45 37.370473 -120.567503 54 194ft 0kts
01-May-18 14:46 37.370473 -120.567503 54 194ft 0kts
01-May-18 14:47 37.370473 -120.567503 54 194ft 0kts
01-May-18 14:48 37.370473 -120.567503 54 194ft 0kts
01-May-18 14:49 37.370473 -120.567503 54 194ft 0kts
01-May-18 14:50 37.370473 -120.567503 54 194ft 0kts
01-May-18 14:51 37.370474 -120.567502 54 194ft 0kts
01-May-18 14:52 37.370475 -120.567499 54 194ft 0kts
01-May-18 14:53 37.370477 -120.567496 54 194ft 0kts
01-May-18 14:54 37.370479 -120.567493 54 194ft 0kts
01-May-18 14:55 37.370480 -120.567491 54 194ft 0kts
01-May-18 14:56 37.370482 -120.567488 54 194ft 0kts
01-May-18 14:57 37.370483 -120.567485 54 194ft 0kts
01-May-18 14:58 37.370645 -120.567211 52 194ft 8kts
01-May-18 14:59 37.372750 -120.567432 35 194ft 11kts
01-May-18 15:00 37.375313 -120.565947 320 194ft 11kts
01-May-18 15:01 37.378090 -120.568792 320 194ft 13kts
01-May-18 15:02 37.381150 -120.571911 320 194ft 14kts
01-May-18 15:03 37.382868 -120.571574 49 194ft 0kts
01-May-18 15:04 37.382921 -120.571496 48 194ft 5kts
01-May-18 15:05 37.378028 -120.565709 140 194ft 108kts
01-May-18 15:06 37.350581 -120.537556 136 1361ft 140kts
01-May-18 15:07 37.318241 -120.503027 141 2826ft 162kts
01-May-18 15:08 37.282918 -120.466161 142 4259ft 167kts
01-May-18 15:09 37.247191 -120.428952 143 5750ft 167kts
01-May-18 15:10 37.212723 -120.389178 130 7250ft 171kts
01-May-18 15:11 37.184524 -120.338727 129 8761ft 181kts
01-May-18 15:12 37.154629 -120.286072 132 10229ft 191kts
01-May-18 15:12 37.127812 -120.239180 134 11165ft 213kts
01-May-18 15:13 37.089059 -120.171425 132 11173ft 256kts
01-May-18 15:14 37.046977 -120.097797 132 11165ft 261kts
01-May-18 15:15 37.004341 -120.023438 132 11165ft 263kts
01-May-18 15:16 36.961577 -119.949042 132 11163ft 264kts
01-May-18 15:17 36.918617 -119.874458 132 11164ft 263kts
01-May-18 15:18 36.871707 -119.806464 162 11175ft 247kts
01-May-18 15:19 36.807866 -119.775191 166 11152ft 248kts
01-May-18 15:20 36.744143 -119.740922 166 11147ft 247kts
01-May-18 15:21 36.680340 -119.708710 161 11154ft 251kts
01-May-18 15:22 36.616683 -119.675206 165 11146ft 248kts
01-May-18 15:23 36.552701 -119.642403 165 11145ft 248kts
01-May-18 15:24 36.488709 -119.609339 165 11143ft 249kts
01-May-18 15:25 36.424728 -119.576272 165 11143ft 249kts
01-May-18 15:26 36.360498 -119.543133 165 11143ft 249kts
01-May-18 15:27 36.296075 -119.510064 165 11140ft 251kts
01-May-18 15:28 36.231226 -119.476820 165 11138ft 252kts
01-May-18 15:29 36.166466 -119.443618 165 11140ft 250kts
01-May-18 15:30 36.102193 -119.410796 165 11141ft 250kts
01-May-18 15:31 36.037985 -119.377873 165 11142ft 250kts
01-May-18 15:32 35.973479 -119.344747 165 11137ft 251kts
01-May-18 15:33 35.908886 -119.311706 165 11162ft 252kts
01-May-18 15:34 35.843831 -119.278496 165 11159ft 253kts
01-May-18 15:35 35.778801 -119.245587 165 11154ft 253kts
01-May-18 15:36 35.713492 -119.212757 165 11152ft 254kts
01-May-18 15:37 35.653488 -119.166660 143 10813ft 258kts
01-May-18 15:38 35.600223 -119.106637 142 9818ft 259kts
01-May-18 15:39 35.546516 -119.048294 143 8745ft 256kts
01-May-18 15:40 35.492857 -118.991689 143 7544ft 249kts
01-May-18 15:41 35.441429 -118.938136 143 6340ft 236kts
01-May-18 15:42 35.392576 -118.887719 143 5120ft 223kts
01-May-18 15:43 35.345089 -118.839404 143 3717ft 217kts
01-May-18 15:44 35.297743 -118.811002 210 3203ft 180kts
01-May-18 15:45 35.259932 -118.847181 223 3167ft 166kts
01-May-18 15:46 35.253681 -118.888347 319 3190ft 164kts
01-May-18 15:47 35.293496 -118.921420 323 3166ft 177kts
01-May-18 15:48 35.337084 -118.947322 343 2903ft 176kts
01-May-18 15:49 35.369423 -118.977850 311 1966ft 145kts
01-May-18 15:50 35.395734 -119.010200 316 1515ft 122kts
01-May-18 15:51 35.418298 -119.037327 316 886ft 106kts
01-May-18 15:52 35.438191 -119.061351 311 512ft 54kts
01-May-18 15:53 35.440567 -119.063310 6 512ft 0kts
01-May-18 15:54 35.441058 -119.062383 135 512ft 14kts
01-May-18 15:55 35.436120 -119.056468 134 512ft 24kts
01-May-18 15:56 35.433936 -119.052207 48 512ft 12kts
01-May-18 15:57 35.434803 -119.046208 82 512ft 16kts
01-May-18 15:58 35.433881 -119.044266 132 512ft 2kts
01-May-18 15:59 35.433689 -119.044116 252 512ft 0kts

Navigation Log

Ident Type
Flight plan parsing failed, navigation log unavailable